sensor_id;sensor_type;location;lat;lon;timestamp;P1;durP1;ratioP1;P2;durP2;ratioP2
45848;SDS011;31567;54.600;9.842;2022-11-23T00:03:11;48.50;;;23.55;;
45848;SDS011;31567;54.600;9.842;2022-11-23T00:06:52;48.58;;;22.90;;
45848;SDS011;31567;54.600;9.842;2022-11-23T00:10:32;45.03;;;23.38;;
45848;SDS011;31567;54.600;9.842;2022-11-23T00:14:11;43.03;;;22.05;;
45848;SDS011;31567;54.600;9.842;2022-11-23T00:17:51;46.50;;;22.75;;
45848;SDS011;31567;54.600;9.842;2022-11-23T00:21:31;46.40;;;21.80;;
45848;SDS011;31567;54.600;9.842;2022-11-23T00:25:11;41.33;;;20.40;;
45848;SDS011;31567;54.600;9.842;2022-11-23T00:28:51;46.80;;;22.70;;
45848;SDS011;31567;54.600;9.842;2022-11-23T00:32:30;40.38;;;19.98;;
45848;SDS011;31567;54.600;9.842;2022-11-23T00:36:11;48.55;;;22.13;;
45848;SDS011;31567;54.600;9.842;2022-11-23T00:39:52;46.38;;;22.77;;
45848;SDS011;31567;54.600;9.842;2022-11-23T00:43:31;46.45;;;23.00;;
45848;SDS011;31567;54.600;9.842;2022-11-23T00:47:11;50.90;;;23.52;;
45848;SDS011;31567;54.600;9.842;2022-11-23T00:50:51;49.65;;;24.27;;
45848;SDS011;31567;54.600;9.842;2022-11-23T00:54:30;47.17;;;22.02;;
45848;SDS011;31567;54.600;9.842;2022-11-23T00:58:10;43.63;;;21.65;;
45848;SDS011;31567;54.600;9.842;2022-11-23T01:01:49;46.92;;;22.88;;
45848;SDS011;31567;54.600;9.842;2022-11-23T01:05:29;46.03;;;22.75;;
45848;SDS011;31567;54.600;9.842;2022-11-23T01:09:13;50.03;;;24.25;;
45848;SDS011;31567;54.600;9.842;2022-11-23T01:12:55;48.72;;;23.80;;
45848;SDS011;31567;54.600;9.842;2022-11-23T01:16:36;50.58;;;24.83;;
45848;SDS011;31567;54.600;9.842;2022-11-23T01:20:17;47.20;;;22.83;;
45848;SDS011;31567;54.600;9.842;2022-11-23T01:23:57;46.42;;;22.73;;
45848;SDS011;31567;54.600;9.842;2022-11-23T01:27:36;51.83;;;22.67;;
45848;SDS011;31567;54.600;9.842;2022-11-23T01:31:20;45.28;;;22.20;;
45848;SDS011;31567;54.600;9.842;2022-11-23T01:35:01;46.22;;;23.25;;
45848;SDS011;31567;54.600;9.842;2022-11-23T01:38:41;45.15;;;23.13;;
45848;SDS011;31567;54.600;9.842;2022-11-23T01:42:21;50.95;;;23.70;;
45848;SDS011;31567;54.600;9.842;2022-11-23T01:46:15;44.95;;;22.90;;
45848;SDS011;31567;54.600;9.842;2022-11-23T01:49:56;46.80;;;22.58;;
45848;SDS011;31567;54.600;9.842;2022-11-23T01:53:35;44.38;;;22.65;;
45848;SDS011;31567;54.600;9.842;2022-11-23T01:57:18;51.20;;;23.67;;
45848;SDS011;31567;54.600;9.842;2022-11-23T02:01:05;47.50;;;23.65;;
45848;SDS011;31567;54.600;9.842;2022-11-23T02:04:46;53.50;;;23.60;;
45848;SDS011;31567;54.600;9.842;2022-11-23T02:08:29;39.92;;;21.50;;
45848;SDS011;31567;54.600;9.842;2022-11-23T02:12:10;40.88;;;22.63;;
45848;SDS011;31567;54.600;9.842;2022-11-23T02:15:50;43.40;;;22.40;;
45848;SDS011;31567;54.600;9.842;2022-11-23T02:23:35;40.97;;;21.65;;
45848;SDS011;31567;54.600;9.842;2022-11-23T02:27:39;43.88;;;22.90;;
45848;SDS011;31567;54.600;9.842;2022-11-23T02:31:19;44.65;;;23.10;;
45848;SDS011;31567;54.600;9.842;2022-11-23T02:34:59;46.20;;;22.05;;
45848;SDS011;31567;54.600;9.842;2022-11-23T02:38:38;43.85;;;21.33;;
45848;SDS011;31567;54.600;9.842;2022-11-23T02:42:18;44.63;;;23.40;;
45848;SDS011;31567;54.600;9.842;2022-11-23T02:45:59;38.33;;;21.25;;
45848;SDS011;31567;54.600;9.842;2022-11-23T02:49:44;41.60;;;21.30;;
45848;SDS011;31567;54.600;9.842;2022-11-23T02:53:25;42.33;;;21.70;;
45848;SDS011;31567;54.600;9.842;2022-11-23T02:57:05;41.63;;;22.48;;
45848;SDS011;31567;54.600;9.842;2022-11-23T03:00:44;39.33;;;22.25;;
45848;SDS011;31567;54.600;9.842;2022-11-23T03:04:24;46.17;;;23.75;;
45848;SDS011;31567;54.600;9.842;2022-11-23T03:08:04;42.35;;;21.92;;
45848;SDS011;31567;54.600;9.842;2022-11-23T03:11:43;39.30;;;21.17;;
45848;SDS011;31567;54.600;9.842;2022-11-23T03:15:23;44.55;;;21.98;;
45848;SDS011;31567;54.600;9.842;2022-11-23T03:19:03;42.05;;;23.23;;
45848;SDS011;31567;54.600;9.842;2022-11-23T03:22:42;40.15;;;22.92;;
45848;SDS011;31567;54.600;9.842;2022-11-23T03:26:22;40.10;;;21.77;;
45848;SDS011;31567;54.600;9.842;2022-11-23T03:30:02;41.00;;;22.02;;
45848;SDS011;31567;54.600;9.842;2022-11-23T03:33:42;38.75;;;22.65;;
45848;SDS011;31567;54.600;9.842;2022-11-23T03:37:21;38.50;;;22.00;;
45848;SDS011;31567;54.600;9.842;2022-11-23T03:41:02;40.60;;;21.15;;
45848;SDS011;31567;54.600;9.842;2022-11-23T03:44:41;36.17;;;19.25;;
45848;SDS011;31567;54.600;9.842;2022-11-23T03:48:21;42.63;;;21.52;;
45848;SDS011;31567;54.600;9.842;2022-11-23T03:52:01;36.33;;;21.23;;
45848;SDS011;31567;54.600;9.842;2022-11-23T03:55:40;42.80;;;21.00;;
45848;SDS011;31567;54.600;9.842;2022-11-23T03:59:20;37.05;;;20.27;;
45848;SDS011;31567;54.600;9.842;2022-11-23T04:02:59;37.08;;;21.65;;
45848;SDS011;31567;54.600;9.842;2022-11-23T04:06:39;40.85;;;22.00;;
45848;SDS011;31567;54.600;9.842;2022-11-23T04:10:18;39.08;;;22.02;;
45848;SDS011;31567;54.600;9.842;2022-11-23T04:13:58;38.80;;;21.67;;
45848;SDS011;31567;54.600;9.842;2022-11-23T04:17:37;35.92;;;20.85;;
45848;SDS011;31567;54.600;9.842;2022-11-23T04:21:17;43.67;;;21.80;;
45848;SDS011;31567;54.600;9.842;2022-11-23T04:24:56;41.08;;;22.17;;
45848;SDS011;31567;54.600;9.842;2022-11-23T04:28:36;35.35;;;20.42;;
45848;SDS011;31567;54.600;9.842;2022-11-23T04:32:16;34.40;;;19.52;;
45848;SDS011;31567;54.600;9.842;2022-11-23T04:35:55;37.72;;;20.75;;
45848;SDS011;31567;54.600;9.842;2022-11-23T04:39:35;36.58;;;20.83;;
45848;SDS011;31567;54.600;9.842;2022-11-23T04:43:15;35.65;;;19.27;;
45848;SDS011;31567;54.600;9.842;2022-11-23T04:46:54;37.67;;;19.83;;
45848;SDS011;31567;54.600;9.842;2022-11-23T04:50:34;39.17;;;19.95;;
45848;SDS011;31567;54.600;9.842;2022-11-23T04:54:15;33.35;;;19.73;;
45848;SDS011;31567;54.600;9.842;2022-11-23T04:57:55;36.72;;;21.52;;
45848;SDS011;31567;54.600;9.842;2022-11-23T05:01:34;37.03;;;20.48;;
45848;SDS011;31567;54.600;9.842;2022-11-23T05:05:14;36.30;;;22.10;;
45848;SDS011;31567;54.600;9.842;2022-11-23T05:08:54;33.70;;;20.40;;
45848;SDS011;31567;54.600;9.842;2022-11-23T05:12:33;30.83;;;18.23;;
45848;SDS011;31567;54.600;9.842;2022-11-23T05:16:14;38.50;;;20.60;;
45848;SDS011;31567;54.600;9.842;2022-11-23T05:19:53;34.72;;;19.73;;
45848;SDS011;31567;54.600;9.842;2022-11-23T05:23:34;35.00;;;19.25;;
45848;SDS011;31567;54.600;9.842;2022-11-23T05:27:13;35.78;;;19.08;;
45848;SDS011;31567;54.600;9.842;2022-11-23T05:30:53;37.45;;;21.38;;
45848;SDS011;31567;54.600;9.842;2022-11-23T05:34:32;38.92;;;21.83;;
45848;SDS011;31567;54.600;9.842;2022-11-23T05:38:12;37.17;;;21.17;;
45848;SDS011;31567;54.600;9.842;2022-11-23T05:41:52;37.58;;;21.65;;
45848;SDS011;31567;54.600;9.842;2022-11-23T05:45:32;35.28;;;19.65;;
45848;SDS011;31567;54.600;9.842;2022-11-23T05:49:11;38.42;;;20.58;;
45848;SDS011;31567;54.600;9.842;2022-11-23T05:52:51;41.30;;;22.02;;
45848;SDS011;31567;54.600;9.842;2022-11-23T05:56:31;37.15;;;21.13;;
45848;SDS011;31567;54.600;9.842;2022-11-23T06:00:10;38.55;;;20.67;;
45848;SDS011;31567;54.600;9.842;2022-11-23T06:03:50;37.83;;;21.02;;
45848;SDS011;31567;54.600;9.842;2022-11-23T06:07:31;34.83;;;20.60;;
45848;SDS011;31567;54.600;9.842;2022-11-23T06:11:11;35.58;;;19.85;;
45848;SDS011;31567;54.600;9.842;2022-11-23T06:14:51;33.10;;;20.05;;
45848;SDS011;31567;54.600;9.842;2022-11-23T06:18:30;39.00;;;22.10;;
45848;SDS011;31567;54.600;9.842;2022-11-23T06:22:10;37.90;;;21.25;;
45848;SDS011;31567;54.600;9.842;2022-11-23T06:25:50;41.17;;;22.58;;
45848;SDS011;31567;54.600;9.842;2022-11-23T06:29:29;35.92;;;21.17;;
45848;SDS011;31567;54.600;9.842;2022-11-23T06:33:09;35.80;;;20.33;;
45848;SDS011;31567;54.600;9.842;2022-11-23T06:36:48;34.67;;;19.73;;
45848;SDS011;31567;54.600;9.842;2022-11-23T06:40:28;34.00;;;19.35;;
45848;SDS011;31567;54.600;9.842;2022-11-23T06:44:07;38.85;;;19.15;;
45848;SDS011;31567;54.600;9.842;2022-11-23T06:47:47;42.58;;;21.15;;
45848;SDS011;31567;54.600;9.842;2022-11-23T06:51:27;33.13;;;20.27;;
45848;SDS011;31567;54.600;9.842;2022-11-23T06:55:06;35.22;;;20.90;;
45848;SDS011;31567;54.600;9.842;2022-11-23T06:58:46;36.55;;;20.25;;
45848;SDS011;31567;54.600;9.842;2022-11-23T07:02:25;32.67;;;19.08;;
45848;SDS011;31567;54.600;9.842;2022-11-23T07:06:05;32.03;;;18.33;;
45848;SDS011;31567;54.600;9.842;2022-11-23T07:09:46;31.35;;;18.80;;
45848;SDS011;31567;54.600;9.842;2022-11-23T07:13:26;31.95;;;18.92;;
45848;SDS011;31567;54.600;9.842;2022-11-23T07:17:05;32.45;;;18.83;;
45848;SDS011;31567;54.600;9.842;2022-11-23T07:20:45;37.05;;;19.20;;
45848;SDS011;31567;54.600;9.842;2022-11-23T07:24:25;35.67;;;18.65;;
45848;SDS011;31567;54.600;9.842;2022-11-23T07:28:05;32.00;;;18.42;;
45848;SDS011;31567;54.600;9.842;2022-11-23T07:31:45;34.08;;;19.48;;
45848;SDS011;31567;54.600;9.842;2022-11-23T07:35:25;32.97;;;19.33;;
45848;SDS011;31567;54.600;9.842;2022-11-23T07:39:04;33.00;;;17.52;;
45848;SDS011;31567;54.600;9.842;2022-11-23T07:42:45;34.38;;;18.52;;
45848;SDS011;31567;54.600;9.842;2022-11-23T07:46:24;31.20;;;17.70;;
45848;SDS011;31567;54.600;9.842;2022-11-23T07:50:05;32.08;;;18.25;;
45848;SDS011;31567;54.600;9.842;2022-11-23T07:53:45;27.55;;;17.00;;
45848;SDS011;31567;54.600;9.842;2022-11-23T07:57:25;27.42;;;16.80;;
45848;SDS011;31567;54.600;9.842;2022-11-23T08:01:05;31.80;;;17.33;;
45848;SDS011;31567;54.600;9.842;2022-11-23T08:04:45;32.35;;;17.38;;
45848;SDS011;31567;54.600;9.842;2022-11-23T08:08:24;29.13;;;16.70;;
45848;SDS011;31567;54.600;9.842;2022-11-23T08:12:04;26.17;;;15.52;;
45848;SDS011;31567;54.600;9.842;2022-11-23T08:15:44;28.30;;;16.08;;
45848;SDS011;31567;54.600;9.842;2022-11-23T08:19:24;23.73;;;14.05;;
45848;SDS011;31567;54.600;9.842;2022-11-23T08:23:03;25.90;;;16.77;;
45848;SDS011;31567;54.600;9.842;2022-11-23T08:26:43;27.55;;;16.20;;
45848;SDS011;31567;54.600;9.842;2022-11-23T08:30:22;27.50;;;16.70;;
45848;SDS011;31567;54.600;9.842;2022-11-23T08:34:02;27.67;;;16.20;;
45848;SDS011;31567;54.600;9.842;2022-11-23T08:37:42;27.05;;;14.75;;
45848;SDS011;31567;54.600;9.842;2022-11-23T08:41:21;25.75;;;15.90;;
45848;SDS011;31567;54.600;9.842;2022-11-23T08:45:01;26.02;;;15.45;;
45848;SDS011;31567;54.600;9.842;2022-11-23T08:48:43;24.58;;;14.77;;
45848;SDS011;31567;54.600;9.842;2022-11-23T08:52:23;28.05;;;15.95;;
45848;SDS011;31567;54.600;9.842;2022-11-23T08:56:03;24.50;;;15.77;;
45848;SDS011;31567;54.600;9.842;2022-11-23T08:59:44;27.40;;;15.73;;
45848;SDS011;31567;54.600;9.842;2022-11-23T09:03:23;25.52;;;15.55;;
45848;SDS011;31567;54.600;9.842;2022-11-23T09:07:03;25.30;;;14.98;;
45848;SDS011;31567;54.600;9.842;2022-11-23T09:10:42;26.55;;;15.52;;
45848;SDS011;31567;54.600;9.842;2022-11-23T09:14:22;22.42;;;14.27;;
45848;SDS011;31567;54.600;9.842;2022-11-23T09:18:02;23.73;;;14.57;;
45848;SDS011;31567;54.600;9.842;2022-11-23T09:21:41;20.98;;;13.40;;
45848;SDS011;31567;54.600;9.842;2022-11-23T09:25:21;20.80;;;13.23;;
45848;SDS011;31567;54.600;9.842;2022-11-23T09:29:02;21.40;;;13.90;;
45848;SDS011;31567;54.600;9.842;2022-11-23T09:32:43;24.48;;;14.55;;
45848;SDS011;31567;54.600;9.842;2022-11-23T09:36:22;20.85;;;13.15;;
45848;SDS011;31567;54.600;9.842;2022-11-23T09:40:02;22.83;;;13.32;;
45848;SDS011;31567;54.600;9.842;2022-11-23T09:43:55;23.77;;;13.55;;
45848;SDS011;31567;54.600;9.842;2022-11-23T09:51:47;18.35;;;12.55;;
45848;SDS011;31567;54.600;9.842;2022-11-23T09:55:40;19.73;;;12.98;;
45848;SDS011;31567;54.600;9.842;2022-11-23T10:03:21;18.88;;;12.50;;
45848;SDS011;31567;54.600;9.842;2022-11-23T10:15:23;17.50;;;12.40;;
45848;SDS011;31567;54.600;9.842;2022-11-23T10:19:18;16.92;;;11.93;;
45848;SDS011;31567;54.600;9.842;2022-11-23T10:23:12;17.90;;;11.18;;
45848;SDS011;31567;54.600;9.842;2022-11-23T10:27:12;19.17;;;12.55;;
45848;SDS011;31567;54.600;9.842;2022-11-23T10:30:55;21.58;;;12.07;;
45848;SDS011;31567;54.600;9.842;2022-11-23T10:38:40;16.10;;;12.43;;
45848;SDS011;31567;54.600;9.842;2022-11-23T10:42:25;18.98;;;12.05;;
45848;SDS011;31567;54.600;9.842;2022-11-23T10:46:24;20.52;;;12.85;;
45848;SDS011;31567;54.600;9.842;2022-11-23T10:50:20;19.15;;;11.30;;
45848;SDS011;31567;54.600;9.842;2022-11-23T10:54:03;16.90;;;11.32;;
45848;SDS011;31567;54.600;9.842;2022-11-23T10:57:55;17.83;;;10.70;;
45848;SDS011;31567;54.600;9.842;2022-11-23T11:01:35;15.40;;;10.82;;
45848;SDS011;31567;54.600;9.842;2022-11-23T11:05:25;18.48;;;11.40;;
45848;SDS011;31567;54.600;9.842;2022-11-23T11:09:17;20.08;;;11.43;;
45848;SDS011;31567;54.600;9.842;2022-11-23T11:12:58;15.30;;;10.88;;
45848;SDS011;31567;54.600;9.842;2022-11-23T11:16:37;15.25;;;10.85;;
45848;SDS011;31567;54.600;9.842;2022-11-23T11:20:33;15.02;;;10.43;;
45848;SDS011;31567;54.600;9.842;2022-11-23T11:28:43;17.38;;;10.00;;
45848;SDS011;31567;54.600;9.842;2022-11-23T11:32:48;13.40;;;9.25;;
45848;SDS011;31567;54.600;9.842;2022-11-23T11:36:55;17.08;;;10.07;;
45848;SDS011;31567;54.600;9.842;2022-11-23T11:40:46;13.25;;;9.25;;
45848;SDS011;31567;54.600;9.842;2022-11-23T11:44:27;11.63;;;8.75;;
45848;SDS011;31567;54.600;9.842;2022-11-23T11:48:21;14.65;;;9.27;;
45848;SDS011;31567;54.600;9.842;2022-11-23T11:52:20;14.57;;;9.48;;
45848;SDS011;31567;54.600;9.842;2022-11-23T11:56:10;11.88;;;8.65;;
45848;SDS011;31567;54.600;9.842;2022-11-23T12:04:01;10.80;;;7.80;;
45848;SDS011;31567;54.600;9.842;2022-11-23T12:11:47;12.48;;;8.63;;
45848;SDS011;31567;54.600;9.842;2022-11-23T12:15:27;11.80;;;7.95;;
45848;SDS011;31567;54.600;9.842;2022-11-23T12:19:36;11.77;;;8.13;;
45848;SDS011;31567;54.600;9.842;2022-11-23T12:23:32;13.68;;;8.23;;
45848;SDS011;31567;54.600;9.842;2022-11-23T12:35:21;11.88;;;7.60;;
45848;SDS011;31567;54.600;9.842;2022-11-23T12:43:23;10.00;;;7.22;;
45848;SDS011;31567;54.600;9.842;2022-11-23T12:51:48;10.65;;;7.45;;
45848;SDS011;31567;54.600;9.842;2022-11-23T12:55:59;11.50;;;8.27;;
45848;SDS011;31567;54.600;9.842;2022-11-23T12:59:59;11.70;;;7.55;;
45848;SDS011;31567;54.600;9.842;2022-11-23T13:07:52;13.07;;;7.90;;
45848;SDS011;31567;54.600;9.842;2022-11-23T13:11:55;11.07;;;7.43;;
45848;SDS011;31567;54.600;9.842;2022-11-23T13:20:02;12.75;;;7.20;;
45848;SDS011;31567;54.600;9.842;2022-11-23T13:24:24;10.75;;;7.68;;
45848;SDS011;31567;54.600;9.842;2022-11-23T13:28:28;11.88;;;7.32;;
45848;SDS011;31567;54.600;9.842;2022-11-23T13:40:19;12.68;;;7.50;;
45848;SDS011;31567;54.600;9.842;2022-11-23T13:51:41;14.10;;;9.30;;
45848;SDS011;31567;54.600;9.842;2022-11-23T13:55:27;12.73;;;8.93;;
45848;SDS011;31567;54.600;9.842;2022-11-23T14:07:24;12.93;;;8.48;;
45848;SDS011;31567;54.600;9.842;2022-11-23T14:11:10;14.38;;;7.93;;
45848;SDS011;31567;54.600;9.842;2022-11-23T14:14:55;12.48;;;8.63;;
45848;SDS011;31567;54.600;9.842;2022-11-23T14:18:55;10.00;;;7.70;;
45848;SDS011;31567;54.600;9.842;2022-11-23T14:34:54;15.30;;;8.38;;
45848;SDS011;31567;54.600;9.842;2022-11-23T14:42:56;12.05;;;7.13;;
45848;SDS011;31567;54.600;9.842;2022-11-23T14:46:36;13.60;;;8.05;;
45848;SDS011;31567;54.600;9.842;2022-11-23T14:50:35;11.20;;;7.82;;
45848;SDS011;31567;54.600;9.842;2022-11-23T14:54:15;13.57;;;7.70;;
45848;SDS011;31567;54.600;9.842;2022-11-23T14:57:59;12.07;;;7.93;;
45848;SDS011;31567;54.600;9.842;2022-11-23T15:01:46;11.52;;;8.35;;
45848;SDS011;31567;54.600;9.842;2022-11-23T15:05:29;13.23;;;7.47;;
45848;SDS011;31567;54.600;9.842;2022-11-23T15:13:00;11.38;;;7.28;;
45848;SDS011;31567;54.600;9.842;2022-11-23T15:16:40;10.02;;;6.60;;
45848;SDS011;31567;54.600;9.842;2022-11-23T15:20:21;10.85;;;6.88;;
45848;SDS011;31567;54.600;9.842;2022-11-23T15:24:02;11.63;;;7.07;;
45848;SDS011;31567;54.600;9.842;2022-11-23T15:27:42;12.02;;;7.75;;
45848;SDS011;31567;54.600;9.842;2022-11-23T15:35:13;12.02;;;7.53;;
45848;SDS011;31567;54.600;9.842;2022-11-23T15:38:53;12.40;;;7.68;;
45848;SDS011;31567;54.600;9.842;2022-11-23T15:42:34;14.63;;;8.38;;
45848;SDS011;31567;54.600;9.842;2022-11-23T15:46:14;15.20;;;9.25;;
45848;SDS011;31567;54.600;9.842;2022-11-23T15:49:59;14.73;;;8.45;;
45848;SDS011;31567;54.600;9.842;2022-11-23T15:53:44;9.95;;;7.07;;
45848;SDS011;31567;54.600;9.842;2022-11-23T15:57:28;12.48;;;6.80;;
45848;SDS011;31567;54.600;9.842;2022-11-23T16:05:01;14.13;;;8.40;;
45848;SDS011;31567;54.600;9.842;2022-11-23T16:08:47;10.40;;;7.20;;
45848;SDS011;31567;54.600;9.842;2022-11-23T16:12:27;14.60;;;8.38;;
45848;SDS011;31567;54.600;9.842;2022-11-23T16:16:08;14.02;;;7.43;;
45848;SDS011;31567;54.600;9.842;2022-11-23T16:20:00;11.93;;;8.30;;
45848;SDS011;31567;54.600;9.842;2022-11-23T16:23:44;9.35;;;6.95;;
45848;SDS011;31567;54.600;9.842;2022-11-23T16:27:28;11.57;;;6.88;;
45848;SDS011;31567;54.600;9.842;2022-11-23T16:31:23;11.63;;;7.80;;
45848;SDS011;31567;54.600;9.842;2022-11-23T16:35:18;10.30;;;7.32;;
45848;SDS011;31567;54.600;9.842;2022-11-23T16:38:59;9.52;;;7.95;;
45848;SDS011;31567;54.600;9.842;2022-11-23T16:42:38;12.88;;;7.28;;
45848;SDS011;31567;54.600;9.842;2022-11-23T16:46:18;11.43;;;8.02;;
45848;SDS011;31567;54.600;9.842;2022-11-23T16:49:58;13.93;;;8.45;;
45848;SDS011;31567;54.600;9.842;2022-11-23T16:53:42;12.57;;;8.02;;
45848;SDS011;31567;54.600;9.842;2022-11-23T16:57:25;14.45;;;7.72;;
45848;SDS011;31567;54.600;9.842;2022-11-23T17:01:20;10.75;;;8.13;;
45848;SDS011;31567;54.600;9.842;2022-11-23T17:05:02;13.35;;;8.10;;
45848;SDS011;31567;54.600;9.842;2022-11-23T17:08:45;11.85;;;7.55;;
45848;SDS011;31567;54.600;9.842;2022-11-23T17:12:24;10.15;;;7.85;;
45848;SDS011;31567;54.600;9.842;2022-11-23T17:16:04;12.10;;;7.03;;
45848;SDS011;31567;54.600;9.842;2022-11-23T17:19:44;15.30;;;8.35;;
45848;SDS011;31567;54.600;9.842;2022-11-23T17:23:26;14.05;;;7.47;;
45848;SDS011;31567;54.600;9.842;2022-11-23T17:27:05;15.00;;;8.15;;
45848;SDS011;31567;54.600;9.842;2022-11-23T17:30:45;13.27;;;7.70;;
45848;SDS011;31567;54.600;9.842;2022-11-23T17:34:25;13.52;;;7.95;;
45848;SDS011;31567;54.600;9.842;2022-11-23T17:38:10;9.25;;;7.78;;
45848;SDS011;31567;54.600;9.842;2022-11-23T17:41:53;14.55;;;7.47;;
45848;SDS011;31567;54.600;9.842;2022-11-23T17:45:32;11.80;;;7.88;;
45848;SDS011;31567;54.600;9.842;2022-11-23T17:49:13;11.32;;;7.78;;
45848;SDS011;31567;54.600;9.842;2022-11-23T17:52:54;11.52;;;7.68;;
45848;SDS011;31567;54.600;9.842;2022-11-23T17:56:33;12.05;;;7.25;;
45848;SDS011;31567;54.600;9.842;2022-11-23T18:00:17;11.90;;;7.28;;
45848;SDS011;31567;54.600;9.842;2022-11-23T18:03:58;12.65;;;7.65;;
45848;SDS011;31567;54.600;9.842;2022-11-23T18:07:39;11.60;;;7.43;;
45848;SDS011;31567;54.600;9.842;2022-11-23T18:11:19;10.73;;;7.50;;
45848;SDS011;31567;54.600;9.842;2022-11-23T18:14:59;11.70;;;7.50;;
45848;SDS011;31567;54.600;9.842;2022-11-23T18:18:39;14.50;;;7.40;;
45848;SDS011;31567;54.600;9.842;2022-11-23T18:22:19;9.52;;;7.28;;
45848;SDS011;31567;54.600;9.842;2022-11-23T18:29:38;14.32;;;9.25;;
45848;SDS011;31567;54.600;9.842;2022-11-23T18:33:18;12.60;;;8.40;;
45848;SDS011;31567;54.600;9.842;2022-11-23T18:36:58;10.35;;;8.45;;
45848;SDS011;31567;54.600;9.842;2022-11-23T18:40:37;14.52;;;8.48;;
45848;SDS011;31567;54.600;9.842;2022-11-23T18:44:17;14.98;;;8.40;;
45848;SDS011;31567;54.600;9.842;2022-11-23T18:47:56;15.23;;;8.30;;
45848;SDS011;31567;54.600;9.842;2022-11-23T18:51:36;12.93;;;7.82;;
45848;SDS011;31567;54.600;9.842;2022-11-23T18:55:16;14.27;;;8.90;;
45848;SDS011;31567;54.600;9.842;2022-11-23T18:58:55;14.48;;;8.35;;
45848;SDS011;31567;54.600;9.842;2022-11-23T19:02:35;13.35;;;8.20;;
45848;SDS011;31567;54.600;9.842;2022-11-23T19:06:16;12.35;;;7.90;;
45848;SDS011;31567;54.600;9.842;2022-11-23T19:09:57;12.80;;;8.75;;
45848;SDS011;31567;54.600;9.842;2022-11-23T19:13:37;14.38;;;8.85;;
45848;SDS011;31567;54.600;9.842;2022-11-23T19:17:17;15.05;;;8.90;;
45848;SDS011;31567;54.600;9.842;2022-11-23T19:20:56;13.10;;;8.35;;
45848;SDS011;31567;54.600;9.842;2022-11-23T19:24:36;13.15;;;8.18;;
45848;SDS011;31567;54.600;9.842;2022-11-23T19:28:16;14.73;;;8.48;;
45848;SDS011;31567;54.600;9.842;2022-11-23T19:31:55;11.18;;;8.65;;
45848;SDS011;31567;54.600;9.842;2022-11-23T19:35:35;11.60;;;8.55;;
45848;SDS011;31567;54.600;9.842;2022-11-23T19:39:14;13.27;;;9.35;;
45848;SDS011;31567;54.600;9.842;2022-11-23T19:42:54;15.88;;;9.13;;
45848;SDS011;31567;54.600;9.842;2022-11-23T19:46:33;13.38;;;8.57;;
45848;SDS011;31567;54.600;9.842;2022-11-23T19:50:13;12.85;;;9.15;;
45848;SDS011;31567;54.600;9.842;2022-11-23T19:53:53;16.10;;;9.15;;
45848;SDS011;31567;54.600;9.842;2022-11-23T19:57:35;15.05;;;8.82;;
45848;SDS011;31567;54.600;9.842;2022-11-23T20:01:16;12.73;;;9.00;;
45848;SDS011;31567;54.600;9.842;2022-11-23T20:04:56;12.48;;;9.50;;
45848;SDS011;31567;54.600;9.842;2022-11-23T20:08:36;16.55;;;8.85;;
45848;SDS011;31567;54.600;9.842;2022-11-23T20:12:16;15.20;;;9.27;;
45848;SDS011;31567;54.600;9.842;2022-11-23T20:16:00;13.43;;;9.48;;
45848;SDS011;31567;54.600;9.842;2022-11-23T20:19:40;12.48;;;9.65;;
45848;SDS011;31567;54.600;9.842;2022-11-23T20:23:20;15.13;;;9.38;;
45848;SDS011;31567;54.600;9.842;2022-11-23T20:27:00;13.18;;;9.38;;
45848;SDS011;31567;54.600;9.842;2022-11-23T20:30:40;13.40;;;9.07;;
45848;SDS011;31567;54.600;9.842;2022-11-23T20:34:20;14.30;;;9.27;;
45848;SDS011;31567;54.600;9.842;2022-11-23T20:38:00;13.85;;;9.15;;
45848;SDS011;31567;54.600;9.842;2022-11-23T20:41:40;16.10;;;9.30;;
45848;SDS011;31567;54.600;9.842;2022-11-23T20:45:21;16.58;;;9.05;;
45848;SDS011;31567;54.600;9.842;2022-11-23T20:49:01;14.27;;;9.18;;
45848;SDS011;31567;54.600;9.842;2022-11-23T20:52:40;12.90;;;9.48;;
45848;SDS011;31567;54.600;9.842;2022-11-23T20:56:20;11.43;;;8.70;;
45848;SDS011;31567;54.600;9.842;2022-11-23T21:00:00;14.30;;;9.32;;
45848;SDS011;31567;54.600;9.842;2022-11-23T21:03:41;12.73;;;9.23;;
45848;SDS011;31567;54.600;9.842;2022-11-23T21:07:21;13.50;;;8.52;;
45848;SDS011;31567;54.600;9.842;2022-11-23T21:11:08;12.70;;;8.68;;
45848;SDS011;31567;54.600;9.842;2022-11-23T21:15:09;11.30;;;8.23;;
45848;SDS011;31567;54.600;9.842;2022-11-23T21:18:49;12.73;;;8.45;;
45848;SDS011;31567;54.600;9.842;2022-11-23T21:22:29;15.95;;;9.25;;
45848;SDS011;31567;54.600;9.842;2022-11-23T21:26:09;17.77;;;9.10;;
45848;SDS011;31567;54.600;9.842;2022-11-23T21:29:48;12.88;;;9.23;;
45848;SDS011;31567;54.600;9.842;2022-11-23T21:33:29;16.15;;;9.60;;
45848;SDS011;31567;54.600;9.842;2022-11-23T21:37:09;12.77;;;8.07;;
45848;SDS011;31567;54.600;9.842;2022-11-23T21:40:54;14.20;;;8.02;;
45848;SDS011;31567;54.600;9.842;2022-11-23T21:44:37;14.50;;;8.70;;
45848;SDS011;31567;54.600;9.842;2022-11-23T21:48:16;13.43;;;9.30;;
45848;SDS011;31567;54.600;9.842;2022-11-23T21:51:56;15.85;;;9.00;;
45848;SDS011;31567;54.600;9.842;2022-11-23T21:55:35;17.30;;;9.38;;
45848;SDS011;31567;54.600;9.842;2022-11-23T21:59:15;12.35;;;8.20;;
45848;SDS011;31567;54.600;9.842;2022-11-23T22:02:54;13.23;;;8.02;;
45848;SDS011;31567;54.600;9.842;2022-11-23T22:06:36;14.32;;;8.88;;
45848;SDS011;31567;54.600;9.842;2022-11-23T22:10:17;12.48;;;8.60;;
45848;SDS011;31567;54.600;9.842;2022-11-23T22:13:58;14.32;;;8.10;;
45848;SDS011;31567;54.600;9.842;2022-11-23T22:17:45;14.45;;;8.65;;
45848;SDS011;31567;54.600;9.842;2022-11-23T22:21:26;15.10;;;9.05;;
45848;SDS011;31567;54.600;9.842;2022-11-23T22:25:15;14.02;;;8.90;;
45848;SDS011;31567;54.600;9.842;2022-11-23T22:28:55;15.68;;;9.25;;
45848;SDS011;31567;54.600;9.842;2022-11-23T22:32:35;13.95;;;8.85;;
45848;SDS011;31567;54.600;9.842;2022-11-23T22:36:16;12.38;;;8.63;;
45848;SDS011;31567;54.600;9.842;2022-11-23T22:39:57;14.85;;;9.07;;
45848;SDS011;31567;54.600;9.842;2022-11-23T22:43:37;15.25;;;8.90;;
45848;SDS011;31567;54.600;9.842;2022-11-23T22:47:16;18.38;;;9.65;;
45848;SDS011;31567;54.600;9.842;2022-11-23T22:50:57;13.57;;;8.80;;
45848;SDS011;31567;54.600;9.842;2022-11-23T22:54:39;11.43;;;8.35;;
45848;SDS011;31567;54.600;9.842;2022-11-23T22:58:19;11.02;;;8.23;;
45848;SDS011;31567;54.600;9.842;2022-11-23T23:01:58;15.93;;;8.35;;
45848;SDS011;31567;54.600;9.842;2022-11-23T23:05:38;13.70;;;9.07;;
45848;SDS011;31567;54.600;9.842;2022-11-23T23:09:17;16.48;;;8.30;;
45848;SDS011;31567;54.600;9.842;2022-11-23T23:12:57;14.30;;;8.50;;
45848;SDS011;31567;54.600;9.842;2022-11-23T23:16:37;14.23;;;8.52;;
45848;SDS011;31567;54.600;9.842;2022-11-23T23:20:16;14.30;;;9.23;;
45848;SDS011;31567;54.600;9.842;2022-11-23T23:23:56;13.13;;;8.95;;
45848;SDS011;31567;54.600;9.842;2022-11-23T23:27:38;14.35;;;7.80;;
45848;SDS011;31567;54.600;9.842;2022-11-23T23:31:17;12.18;;;7.82;;
45848;SDS011;31567;54.600;9.842;2022-11-23T23:34:57;12.27;;;7.82;;
45848;SDS011;31567;54.600;9.842;2022-11-23T23:38:37;12.60;;;7.68;;
45848;SDS011;31567;54.600;9.842;2022-11-23T23:42:17;12.25;;;7.28;;
45848;SDS011;31567;54.600;9.842;2022-11-23T23:45:57;11.20;;;7.90;;
45848;SDS011;31567;54.600;9.842;2022-11-23T23:49:38;11.88;;;8.02;;